Hauptseite
METAR-TAF:

METAR-TAF

Flughäfen :

Le Havre, Frankreich

Flughafen Le Havre

Breite: 49-31N, Länge: 000-04E, Höhe: 100 m

Beobachtung

Neuester Wetterbericht von vor 34 Minuten, um 09:30 UTC
Wind 14 kt aus Ost/Nordost
Temperatur 0°C
Luftfeuchtigkeit 51%
Luftdruck 1023 hPa
Sichtweite 10 km oder mehr
keine Wolken unter 1500 m und keine Kumulonimbus oder Gewitterwolken

METAR: LFOH 250930Z AUTO 07014KT CAVOK M00/M09 Q1023 NOSIG

Zeit: 11:04 (10:04 UTC)

Prognose

Neuester Wetterbericht von vor 5 Stunden und 4 Minuten, um 05:00 UTC
Gültige Prognose vom 25 um 06 UTC bis 26 um 06 UTC
Wind 12 kt aus Ost
Sichtweite 10 km oder mehr
keine Wolken unter 1500 m und keine Kumulonimbus oder Gewitterwolken

TAF: LFOH 250500Z 2506/2606 08012KT CAVOK

Wetterbeobachtungen und Prognosen von mehr als 4000 Flughäfen (METAR und TAF Bericht).

Die verfügbaren Stationen werden durch gelbe und rote Markierungen auf der Karte dargestellt.

Führen Sie die Maus auf sie, um den Namen der Station zu sehen.

Darauf klicken, um die Beobachtung von Wetterbeobachtungen und Prognosen zu sehen.

Um die Karte zu ändern : klicken Sie auf den grünen Tasten mit einem schwarzen Kreuz Zum Vergrößern, auf den grünen Button mit einem Gedankenstrich zu verkleinern, oder auf die grünen Pfeile für benachbarte Karten.


METAR-TAF: